PWSweather.com
Personal Weather Stations
Station Observations
KCAESCON219
Escondido, CA

Escondido, CA

Lat: 33.07406998, Lon: -117.08213043

Elevation: 75

Station Type:

Latest ConditionsUpdated 10:46:00 PM PDT Wednesday, Aug 21, 2019
Currently Today's Max Today's Min Today's Average
Temperature 63.5°F17.5°C 93.6°F34.2°C 55.4°F13.0°C 73.1°F22.8°C
Dew Point 61.1°F16.2°C 67.4°F19.7°C 54.4°F12.4°C 60.3°F15.7°C
Winds Calm Calm 8.1 mph -13.0 kmh - - 0.9 mph 1.4 kmh
Wind Gusts -- 10.3 mph16.6 kmh - -
Humidity 92% 99% 36% 70%
Pressure 0.00 in0.0 mb 0.00 in0.0 mb 0.00 in0.0 mb -
Hour Temp Dew Point Humidity Winds Wind Gusts Pressure Precip Precip Rate Daily Precip Total
10:46 PM 63.5°F17.5°C 61.1°F16.2°C 92% Calm Calm -- 0.00 in0.0 mb 0.00 in0.0 mm 0.00 in0.0 mm 0.00 in0.0 mm
10:40 PM 63.9°F17.7°C 61.2°F16.2°C 91% Calm Calm -- 0.00 in0.0 mb 0.00 in0.0 mm 0.00 in0.0 mm 0.00 in0.0 mm
10:35 PM 64.0°F17.8°C 61.3°F16.3°C 91% Calm Calm -- 0.00 in0.0 mb 0.00 in0.0 mm 0.00 in0.0 mm 0.00 in0.0 mm
10:30 PM 64.4°F18.0°C 61.7°F16.5°C 91% Calm Calm -- 0.00 in0.0 mb 0.00 in0.0 mm 0.00 in0.0 mm 0.00 in0.0 mm
10:25 PM 64.6°F18.1°C 61.6°F16.4°C 90% Calm Calm -- 0.00 in0.0 mb 0.00 in0.0 mm 0.00 in0.0 mm 0.00 in0.0 mm
10:20 PM 64.9°F18.3°C 61.9°F16.6°C 90% Calm Calm -- 0.00 in0.0 mb 0.00 in0.0 mm 0.00 in0.0 mm 0.00 in0.0 mm
10:15 PM 65.1°F18.4°C 61.8°F16.6°C 89% Calm Calm -- 0.00 in0.0 mb 0.00 in0.0 mm 0.00 in0.0 mm 0.00 in0.0 mm
10:10 PM 65.3°F18.5°C 62.0°F16.7°C 89% Calm Calm -- 0.00 in0.0 mb 0.00 in0.0 mm 0.00 in0.0 mm 0.00 in0.0 mm
10:05 PM 65.5°F18.6°C 61.8°F16.6°C 88% Calm Calm -- 0.00 in0.0 mb 0.00 in0.0 mm 0.00 in0.0 mm 0.00 in0.0 mm
10:01 PM 65.5°F18.6°C 62.2°F16.8°C 89% 0.2 mph WNW0.3 kmh WNW 1.1 mph1.8 kmh 0.00 in0.0 mb 0.00 in0.0 mm 0.00 in0.0 mm 0.00 in0.0 mm
09:57 PM 65.7°F18.7°C 62.0°F16.7°C 88% Calm Calm -- 0.00 in0.0 mb 0.00 in0.0 mm 0.00 in0.0 mm 0.00 in0.0 mm
09:50 PM 65.8°F18.8°C 61.8°F16.6°C 87% 0.2 mph WNW0.3 kmh WNW 1.1 mph1.8 kmh 0.00 in0.0 mb 0.00 in0.0 mm 0.00 in0.0 mm 0.00 in0.0 mm
09:45 PM 66.2°F19.0°C 62.2°F16.8°C 87% Calm Calm -- 0.00 in0.0 mb 0.00 in0.0 mm 0.00 in0.0 mm 0.00 in0.0 mm
09:40 PM 66.4°F19.1°C 62.4°F16.9°C 87% Calm Calm -- 0.00 in0.0 mb 0.00 in0.0 mm 0.00 in0.0 mm 0.00 in0.0 mm
09:35 PM 66.7°F19.3°C 62.7°F17.1°C 87% Calm Calm -- 0.00 in0.0 mb 0.00 in0.0 mm 0.00 in0.0 mm 0.00 in0.0 mm
09:30 PM 67.1°F19.5°C 62.8°F17.1°C 86% Calm Calm -- 0.00 in0.0 mb 0.00 in0.0 mm 0.00 in0.0 mm 0.00 in0.0 mm
09:25 PM 67.5°F19.7°C 63.2°F17.3°C 86% Calm Calm -- 0.00 in0.0 mb 0.00 in0.0 mm 0.00 in0.0 mm 0.00 in0.0 mm
09:20 PM 67.8°F19.9°C 63.1°F17.3°C 85% Calm Calm -- 0.00 in0.0 mb 0.00 in0.0 mm 0.00 in0.0 mm 0.00 in0.0 mm
09:16 PM 68.0°F20.0°C 63.0°F17.2°C 84% Calm Calm -- 0.00 in0.0 mb 0.00 in0.0 mm 0.00 in0.0 mm 0.00 in0.0 mm
09:10 PM 68.4°F20.2°C 63.4°F17.4°C 84% Calm Calm -- 0.00 in0.0 mb 0.00 in0.0 mm 0.00 in0.0 mm 0.00 in0.0 mm
09:05 PM 68.7°F20.4°C 63.3°F17.4°C 83% Calm Calm -- 0.00 in0.0 mb 0.00 in0.0 mm 0.00 in0.0 mm 0.00 in0.0 mm
09:00 PM 68.9°F20.5°C 63.2°F17.3°C 82% Calm Calm -- 0.00 in0.0 mb 0.00 in0.0 mm 0.00 in0.0 mm 0.00 in0.0 mm
08:55 PM 69.3°F20.7°C 63.2°F17.3°C 81% Calm Calm -- 0.00 in0.0 mb 0.00 in0.0 mm 0.00 in0.0 mm 0.00 in0.0 mm
08:50 PM 69.4°F20.8°C 62.6°F17.0°C 79% 0.2 mph WNW0.3 kmh WNW 1.1 mph1.8 kmh 0.00 in0.0 mb 0.00 in0.0 mm 0.00 in0.0 mm 0.00 in0.0 mm
08:45 PM 69.8°F21.0°C 62.6°F17.0°C 78% Calm Calm -- 0.00 in0.0 mb 0.00 in0.0 mm 0.00 in0.0 mm 0.00 in0.0 mm
08:40 PM 70.2°F21.2°C 62.6°F17.0°C 77% Calm Calm -- 0.00 in0.0 mb 0.00 in0.0 mm 0.00 in0.0 mm 0.00 in0.0 mm
08:35 PM 70.5°F21.4°C 62.6°F17.0°C 76% Calm Calm -- 0.00 in0.0 mb 0.00 in0.0 mm 0.00 in0.0 mm 0.00 in0.0 mm
08:31 PM 70.7°F21.5°C 62.8°F17.1°C 76% 0.9 mph WNW1.4 kmh WNW 1.1 mph1.8 kmh 0.00 in0.0 mb 0.00 in0.0 mm 0.00 in0.0 mm 0.00 in0.0 mm
08:25 PM 71.2°F21.8°C 62.5°F16.9°C 74% Calm Calm -- 0.00 in0.0 mb 0.00 in0.0 mm 0.00 in0.0 mm 0.00 in0.0 mm
08:20 PM 71.6°F22.0°C 62.5°F16.9°C 73% Calm Calm -- 0.00 in0.0 mb 0.00 in0.0 mm 0.00 in0.0 mm 0.00 in0.0 mm
08:15 PM 72.0°F22.2°C 62.1°F16.7°C 71% Calm Calm -- 0.00 in0.0 mb 0.00 in0.0 mm 0.00 in0.0 mm 0.00 in0.0 mm
08:10 PM 72.3°F22.4°C 62.0°F16.7°C 70% Calm Calm -- 0.00 in0.0 mb 0.00 in0.0 mm 0.00 in0.0 mm 0.00 in0.0 mm
08:05 PM 72.9°F22.7°C 62.5°F16.9°C 70% Calm Calm -- 0.00 in0.0 mb 0.00 in0.0 mm 0.00 in0.0 mm 0.00 in0.0 mm
08:00 PM 73.2°F22.9°C 62.4°F16.9°C 69% Calm Calm -- 0.00 in0.0 mb 0.00 in0.0 mm 0.00 in0.0 mm 0.00 in0.0 mm
07:55 PM 73.8°F23.2°C 62.6°F17.0°C 68% Calm Calm -- 0.00 in0.0 mb 0.00 in0.0 mm 0.00 in0.0 mm 0.00 in0.0 mm
07:50 PM 74.1°F23.4°C 62.4°F16.9°C 67% Calm Calm -- 0.00 in0.0 mb 0.00 in0.0 mm 0.00 in0.0 mm 0.00 in0.0 mm
07:46 PM 74.5°F23.6°C 62.4°F16.9°C 66% Calm Calm -- 0.00 in0.0 mb 0.00 in0.0 mm 0.00 in0.0 mm 0.00 in0.0 mm
07:40 PM 75.2°F24.0°C 62.6°F17.0°C 65% 0.5 mph W0.8 kmh W 1.1 mph1.8 kmh 0.00 in0.0 mb 0.00 in0.0 mm 0.00 in0.0 mm 0.00 in0.0 mm
07:35 PM 75.7°F24.3°C 62.6°F17.0°C 64% 1.3 mph W2.1 kmh W 2.2 mph3.5 kmh 0.00 in0.0 mb 0.00 in0.0 mm 0.00 in0.0 mm 0.00 in0.0 mm
07:30 PM 76.5°F24.7°C 62.5°F16.9°C 62% 0.7 mph WSW1.1 kmh WSW 1.1 mph1.8 kmh 0.00 in0.0 mb 0.00 in0.0 mm 0.00 in0.0 mm 0.00 in0.0 mm
07:25 PM 77.4°F25.2°C 62.4°F16.9°C 60% 1.1 mph SW1.8 kmh SW 1.1 mph1.8 kmh 0.00 in0.0 mb 0.00 in0.0 mm 0.00 in0.0 mm 0.00 in0.0 mm
07:20 PM 78.3°F25.7°C 62.8°F17.1°C 59% 0.9 mph WSW1.4 kmh WSW 1.1 mph1.8 kmh 0.00 in0.0 mb 0.00 in0.0 mm 0.00 in0.0 mm 0.00 in0.0 mm
07:15 PM 79.3°F26.3°C 62.7°F17.1°C 57% 1.1 mph WSW1.8 kmh WSW 1.1 mph1.8 kmh 0.00 in0.0 mb 0.00 in0.0 mm 0.00 in0.0 mm 0.00 in0.0 mm
07:10 PM 80.2°F26.8°C 62.5°F16.9°C 55% 0.7 mph WSW1.1 kmh WSW 1.1 mph1.8 kmh 0.00 in0.0 mb 0.00 in0.0 mm 0.00 in0.0 mm 0.00 in0.0 mm
07:05 PM 81.1°F27.3°C 62.3°F16.8°C 53% 1.3 mph W2.1 kmh W 2.2 mph3.5 kmh 0.00 in0.0 mb 0.00 in0.0 mm 0.00 in0.0 mm 0.00 in0.0 mm
07:01 PM 81.9°F27.7°C 61.4°F16.3°C 50% 0.2 mph SW0.3 kmh SW 1.1 mph1.8 kmh 0.00 in0.0 mb 0.00 in0.0 mm 0.00 in0.0 mm 0.00 in0.0 mm
06:55 PM 82.6°F28.1°C 60.9°F16.1°C 48% 1.1 mph WSW1.8 kmh WSW 3.4 mph5.5 kmh 0.00 in0.0 mb 0.00 in0.0 mm 0.00 in0.0 mm 0.00 in0.0 mm
06:50 PM 83.1°F28.4°C 60.8°F16.0°C 47% 1.8 mph SW2.9 kmh SW 2.2 mph3.5 kmh 0.00 in0.0 mb 0.00 in0.0 mm 0.00 in0.0 mm 0.00 in0.0 mm
06:45 PM 83.5°F28.6°C 59.9°F15.5°C 45% 1.1 mph WSW1.8 kmh WSW 1.1 mph1.8 kmh 0.00 in0.0 mb 0.00 in0.0 mm 0.00 in0.0 mm 0.00 in0.0 mm
06:40 PM 83.8°F28.8°C 59.5°F15.3°C 44% 1.6 mph WSW2.6 kmh WSW 2.2 mph3.5 kmh 0.00 in0.0 mb 0.00 in0.0 mm 0.00 in0.0 mm 0.00 in0.0 mm
06:35 PM 84.0°F28.9°C 60.3°F15.7°C 45% 0.5 mph SW0.8 kmh SW 1.1 mph1.8 kmh 0.00 in0.0 mb 0.00 in0.0 mm 0.00 in0.0 mm 0.00 in0.0 mm
06:30 PM 84.2°F29.0°C 59.2°F15.1°C 43% 1.8 mph WNW2.9 kmh WNW 2.2 mph3.5 kmh 0.00 in0.0 mb 0.00 in0.0 mm 0.00 in0.0 mm 0.00 in0.0 mm
06:25 PM 84.4°F29.1°C 60.1°F15.6°C 44% 1.3 mph W2.1 kmh W 2.2 mph3.5 kmh 0.00 in0.0 mb 0.00 in0.0 mm 0.00 in0.0 mm 0.00 in0.0 mm
06:20 PM 84.6°F29.2°C 60.3°F15.7°C 44% 1.3 mph W2.1 kmh W 2.2 mph3.5 kmh 0.00 in0.0 mb 0.00 in0.0 mm 0.00 in0.0 mm 0.00 in0.0 mm
06:16 PM 84.7°F29.3°C 60.3°F15.7°C 44% 1.3 mph W2.1 kmh W 2.2 mph3.5 kmh 0.00 in0.0 mb 0.00 in0.0 mm 0.00 in0.0 mm 0.00 in0.0 mm
06:10 PM 84.9°F29.4°C 60.5°F15.8°C 44% 2.2 mph NW3.5 kmh NW 3.4 mph5.5 kmh 0.00 in0.0 mb 0.00 in0.0 mm 0.00 in0.0 mm 0.00 in0.0 mm
06:05 PM 85.3°F29.6°C 60.9°F16.1°C 44% 1.3 mph WSW2.1 kmh WSW 2.2 mph3.5 kmh 0.00 in0.0 mb 0.00 in0.0 mm 0.00 in0.0 mm 0.00 in0.0 mm
06:00 PM 85.5°F29.7°C 60.4°F15.8°C 43% 2.7 mph W4.3 kmh W 4.5 mph7.2 kmh 0.00 in0.0 mb 0.00 in0.0 mm 0.00 in0.0 mm 0.00 in0.0 mm
05:55 PM 85.6°F29.8°C 61.2°F16.2°C 44% 3.1 mph W5.0 kmh W 4.5 mph7.2 kmh 0.00 in0.0 mb 0.00 in0.0 mm 0.00 in0.0 mm 0.00 in0.0 mm
05:50 PM 86.0°F30.0°C 61.5°F16.4°C 44% 2.7 mph WNW4.3 kmh WNW 3.4 mph5.5 kmh 0.00 in0.0 mb 0.00 in0.0 mm 0.00 in0.0 mm 0.00 in0.0 mm
05:45 PM 86.4°F30.2°C 61.9°F16.6°C 44% 0.7 mph WSW1.1 kmh WSW 1.1 mph1.8 kmh 0.00 in0.0 mb 0.00 in0.0 mm 0.00 in0.0 mm 0.00 in0.0 mm
05:40 PM 86.5°F30.3°C 62.0°F16.7°C 44% 2.7 mph WNW4.3 kmh WNW 4.5 mph7.2 kmh 0.00 in0.0 mb 0.00 in0.0 mm 0.00 in0.0 mm 0.00 in0.0 mm
05:35 PM 86.9°F30.5°C 62.3°F16.8°C 44% 1.1 mph SW1.8 kmh SW 1.1 mph1.8 kmh 0.00 in0.0 mb 0.00 in0.0 mm 0.00 in0.0 mm 0.00 in0.0 mm
05:31 PM 87.3°F30.7°C 62.7°F17.1°C 44% 2.7 mph WNW4.3 kmh WNW 3.4 mph5.5 kmh 0.00 in0.0 mb 0.00 in0.0 mm 0.00 in0.0 mm 0.00 in0.0 mm
05:25 PM 87.6°F30.9°C 61.6°F16.4°C 42% 5.1 mph W8.2 kmh W 5.6 mph9.0 kmh 0.00 in0.0 mb 0.00 in0.0 mm 0.00 in0.0 mm 0.00 in0.0 mm
05:20 PM 87.6°F30.9°C 61.6°F16.4°C 42% 0.9 mph ESE1.4 kmh ESE 2.2 mph3.5 kmh 0.00 in0.0 mb 0.00 in0.0 mm 0.00 in0.0 mm 0.00 in0.0 mm
05:15 PM 87.8°F31.0°C 61.8°F16.6°C 42% 3.4 mph W5.5 kmh W 3.4 mph5.5 kmh 0.00 in0.0 mb 0.00 in0.0 mm 0.00 in0.0 mm 0.00 in0.0 mm
05:10 PM 88.0°F31.1°C 62.7°F17.1°C 43% 2.5 mph WSW4.0 kmh WSW 4.5 mph7.2 kmh 0.00 in0.0 mb 0.00 in0.0 mm 0.00 in0.0 mm 0.00 in0.0 mm
05:05 PM 88.0°F31.1°C 61.3°F16.3°C 41% 2.5 mph WSW4.0 kmh WSW 3.4 mph5.5 kmh 0.00 in0.0 mb 0.00 in0.0 mm 0.00 in0.0 mm 0.00 in0.0 mm
05:00 PM 88.0°F31.1°C 61.3°F16.3°C 41% 1.8 mph WSW2.9 kmh WSW 2.2 mph3.5 kmh 0.00 in0.0 mb 0.00 in0.0 mm 0.00 in0.0 mm 0.00 in0.0 mm
04:55 PM 88.2°F31.2°C 62.2°F16.8°C 42% 1.8 mph W2.9 kmh W 2.2 mph3.5 kmh 0.00 in0.0 mb 0.00 in0.0 mm 0.00 in0.0 mm 0.00 in0.0 mm
04:50 PM 88.5°F31.4°C 61.1°F16.2°C 40% 3.8 mph NW6.1 kmh NW 4.5 mph7.2 kmh 0.00 in0.0 mb 0.00 in0.0 mm 0.00 in0.0 mm 0.00 in0.0 mm
04:46 PM 88.7°F31.5°C 61.2°F16.2°C 40% 3.4 mph WSW5.5 kmh WSW 5.6 mph9.0 kmh 0.00 in0.0 mb 0.00 in0.0 mm 0.00 in0.0 mm 0.00 in0.0 mm
04:40 PM 89.2°F31.8°C 60.2°F15.7°C 38% 4.9 mph WSW7.9 kmh WSW 5.6 mph9.0 kmh 0.00 in0.0 mb 0.00 in0.0 mm 0.00 in0.0 mm 0.00 in0.0 mm
04:35 PM 89.8°F32.1°C 60.0°F15.6°C 37% 4.3 mph NW6.9 kmh NW 5.6 mph9.0 kmh 0.00 in0.0 mb 0.00 in0.0 mm 0.00 in0.0 mm 0.00 in0.0 mm
04:30 PM 90.0°F32.2°C 60.2°F15.7°C 37% 2.5 mph W4.0 kmh W 4.5 mph7.2 kmh 0.00 in0.0 mb 0.00 in0.0 mm 0.00 in0.0 mm 0.00 in0.0 mm
04:25 PM 90.1°F32.3°C 60.3°F15.7°C 37% 1.8 mph WSW2.9 kmh WSW 2.2 mph3.5 kmh 0.00 in0.0 mb 0.00 in0.0 mm 0.00 in0.0 mm 0.00 in0.0 mm
04:20 PM 90.5°F32.5°C 60.6°F15.9°C 37% 5.1 mph NW8.2 kmh NW 8.1 mph13.0 kmh 0.00 in0.0 mb 0.00 in0.0 mm 0.00 in0.0 mm 0.00 in0.0 mm
04:15 PM 90.7°F32.6°C 60.8°F16.0°C 37% 1.1 mph W1.8 kmh W 1.1 mph1.8 kmh 0.00 in0.0 mb 0.00 in0.0 mm 0.00 in0.0 mm 0.00 in0.0 mm
04:10 PM 90.7°F32.6°C 60.8°F16.0°C 37% 2.5 mph W4.0 kmh W 4.5 mph7.2 kmh 0.00 in0.0 mb 0.00 in0.0 mm 0.00 in0.0 mm 0.00 in0.0 mm
04:05 PM 90.7°F32.6°C 60.8°F16.0°C 37% 2.5 mph SSE4.0 kmh SSE 4.5 mph7.2 kmh 0.00 in0.0 mb 0.00 in0.0 mm 0.00 in0.0 mm 0.00 in0.0 mm
04:01 PM 90.9°F32.7°C 60.2°F15.7°C 36% 2.7 mph WSW4.3 kmh WSW 4.5 mph7.2 kmh 0.00 in0.0 mb 0.00 in0.0 mm 0.00 in0.0 mm 0.00 in0.0 mm
03:55 PM 91.4°F33.0°C 60.6°F15.9°C 36% 4.9 mph SW7.9 kmh SW 6.9 mph11.1 kmh 0.00 in0.0 mb 0.00 in0.0 mm 0.00 in0.0 mm 0.00 in0.0 mm
03:50 PM 91.8°F33.2°C 61.8°F16.6°C 37% 1.8 mph S2.9 kmh S 2.2 mph3.5 kmh 0.00 in0.0 mb 0.00 in0.0 mm 0.00 in0.0 mm 0.00 in0.0 mm
03:45 PM 91.8°F33.2°C 61.8°F16.6°C 37% 1.8 mph W2.9 kmh W 3.4 mph5.5 kmh 0.00 in0.0 mb 0.00 in0.0 mm 0.00 in0.0 mm 0.00 in0.0 mm
03:40 PM 91.9°F33.3°C 62.6°F17.0°C 38% 1.8 mph SW2.9 kmh SW 3.4 mph5.5 kmh 0.00 in0.0 mb 0.00 in0.0 mm 0.00 in0.0 mm 0.00 in0.0 mm
03:35 PM 91.9°F33.3°C 61.9°F16.6°C 37% 3.6 mph SW5.8 kmh SW 4.5 mph7.2 kmh 0.00 in0.0 mb 0.00 in0.0 mm 0.00 in0.0 mm 0.00 in0.0 mm
03:30 PM 91.9°F33.3°C 62.6°F17.0°C 38% 2.0 mph W3.2 kmh W 3.4 mph5.5 kmh 0.00 in0.0 mb 0.00 in0.0 mm 0.00 in0.0 mm 0.00 in0.0 mm
03:25 PM 91.6°F33.1°C 61.6°F16.4°C 37% 1.1 mph S1.8 kmh S 1.1 mph1.8 kmh 0.00 in0.0 mb 0.00 in0.0 mm 0.00 in0.0 mm 0.00 in0.0 mm
03:20 PM 91.4°F33.0°C 61.4°F16.3°C 37% 1.3 mph WSW2.1 kmh WSW 2.2 mph3.5 kmh 0.00 in0.0 mb 0.00 in0.0 mm 0.00 in0.0 mm 0.00 in0.0 mm
03:16 PM 91.6°F33.1°C 62.4°F16.9°C 38% 2.2 mph WSW3.5 kmh WSW 3.4 mph5.5 kmh 0.00 in0.0 mb 0.00 in0.0 mm 0.00 in0.0 mm 0.00 in0.0 mm
03:10 PM 91.6°F33.1°C 62.4°F16.9°C 38% 4.3 mph WSW6.9 kmh WSW 5.6 mph9.0 kmh 0.00 in0.0 mb 0.00 in0.0 mm 0.00 in0.0 mm 0.00 in0.0 mm
03:05 PM 91.9°F33.3°C 62.6°F17.0°C 38% 6.0 mph NW9.7 kmh NW 8.1 mph13.0 kmh 0.00 in0.0 mb 0.00 in0.0 mm 0.00 in0.0 mm 0.00 in0.0 mm
03:00 PM 91.9°F33.3°C 63.4°F17.4°C 39% 1.3 mph WSW2.1 kmh WSW 2.2 mph3.5 kmh 0.00 in0.0 mb 0.00 in0.0 mm 0.00 in0.0 mm 0.00 in0.0 mm
02:55 PM 92.3°F33.5°C 64.4°F18.0°C 40% 3.4 mph W5.5 kmh W 4.5 mph7.2 kmh 0.00 in0.0 mb 0.00 in0.0 mm 0.00 in0.0 mm 0.00 in0.0 mm
02:50 PM 92.3°F33.5°C 63.7°F17.6°C 39% 3.4 mph NW5.5 kmh NW 4.5 mph7.2 kmh 0.00 in0.0 mb 0.00 in0.0 mm 0.00 in0.0 mm 0.00 in0.0 mm
02:45 PM 92.7°F33.7°C 62.6°F17.0°C 37% 3.6 mph NW5.8 kmh NW 4.5 mph7.2 kmh 0.00 in0.0 mb 0.00 in0.0 mm 0.00 in0.0 mm 0.00 in0.0 mm
02:40 PM 93.0°F33.9°C 63.6°F17.6°C 38% 3.8 mph W6.1 kmh W 5.6 mph9.0 kmh 0.00 in0.0 mb 0.00 in0.0 mm 0.00 in0.0 mm 0.00 in0.0 mm
02:35 PM 93.2°F34.0°C 62.2°F16.8°C 36% 4.0 mph WNW6.4 kmh WNW 5.6 mph9.0 kmh 0.00 in0.0 mb 0.00 in0.0 mm 0.00 in0.0 mm 0.00 in0.0 mm
02:31 PM 93.4°F34.1°C 64.7°F18.2°C 39% 3.8 mph WNW6.1 kmh WNW 5.6 mph9.0 kmh 0.00 in0.0 mb 0.00 in0.0 mm 0.00 in0.0 mm 0.00 in0.0 mm
02:25 PM 93.6°F34.2°C 65.6°F18.7°C 40% 0.7 mph WSW1.1 kmh WSW 1.1 mph1.8 kmh 0.00 in0.0 mb 0.00 in0.0 mm 0.00 in0.0 mm 0.00 in0.0 mm
02:20 PM 93.6°F34.2°C 63.4°F17.4°C 37% 3.8 mph W6.1 kmh W 4.5 mph7.2 kmh 0.00 in0.0 mb 0.00 in0.0 mm 0.00 in0.0 mm 0.00 in0.0 mm
02:15 PM 93.0°F33.9°C 62.0°F16.7°C 36% 1.3 mph SSE2.1 kmh SSE 2.2 mph3.5 kmh 0.00 in0.0 mb 0.00 in0.0 mm 0.00 in0.0 mm 0.00 in0.0 mm
02:10 PM 92.8°F33.8°C 63.4°F17.4°C 38% 3.1 mph W5.0 kmh W 4.5 mph7.2 kmh 0.00 in0.0 mb 0.00 in0.0 mm 0.00 in0.0 mm 0.00 in0.0 mm
02:05 PM 92.7°F33.7°C 62.6°F17.0°C 37% 2.9 mph S4.7 kmh S 3.4 mph5.5 kmh 0.00 in0.0 mb 0.00 in0.0 mm 0.00 in0.0 mm 0.00 in0.0 mm
02:00 PM 92.5°F33.6°C 63.1°F17.3°C 38% 3.1 mph WNW5.0 kmh WNW 4.5 mph7.2 kmh 0.00 in0.0 mb 0.00 in0.0 mm 0.00 in0.0 mm 0.00 in0.0 mm
01:55 PM 91.9°F33.3°C 63.4°F17.4°C 39% 2.9 mph WNW4.7 kmh WNW 4.5 mph7.2 kmh 0.00 in0.0 mb 0.00 in0.0 mm 0.00 in0.0 mm 0.00 in0.0 mm
01:50 PM 91.8°F33.2°C 64.7°F18.2°C 41% 0.7 mph SW1.1 kmh SW 1.1 mph1.8 kmh 0.00 in0.0 mb 0.00 in0.0 mm 0.00 in0.0 mm 0.00 in0.0 mm
01:46 PM 91.6°F33.1°C 63.8°F17.7°C 40% 2.9 mph WNW4.7 kmh WNW 3.4 mph5.5 kmh 0.00 in0.0 mb 0.00 in0.0 mm 0.00 in0.0 mm 0.00 in0.0 mm
01:40 PM 91.2°F32.9°C 64.2°F17.9°C 41% 4.0 mph WSW6.4 kmh WSW 5.6 mph9.0 kmh 0.00 in0.0 mb 0.00 in0.0 mm 0.00 in0.0 mm 0.00 in0.0 mm
01:35 PM 91.0°F32.8°C 65.4°F18.6°C 43% 2.0 mph SE3.2 kmh SE 3.4 mph5.5 kmh 0.00 in0.0 mb 0.00 in0.0 mm 0.00 in0.0 mm 0.00 in0.0 mm
01:30 PM 91.0°F32.8°C 65.4°F18.6°C 43% 3.1 mph NW5.0 kmh NW 4.5 mph7.2 kmh 0.00 in0.0 mb 0.00 in0.0 mm 0.00 in0.0 mm 0.00 in0.0 mm
01:25 PM 91.4°F33.0°C 65.7°F18.7°C 43% 5.4 mph WNW8.7 kmh WNW 10.3 mph16.6 kmh 0.00 in0.0 mb 0.00 in0.0 mm 0.00 in0.0 mm 0.00 in0.0 mm
01:20 PM 91.6°F33.1°C 67.2°F19.6°C 45% 1.8 mph WSW2.9 kmh WSW 3.4 mph5.5 kmh 0.00 in0.0 mb 0.00 in0.0 mm 0.00 in0.0 mm 0.00 in0.0 mm
01:15 PM 91.8°F33.2°C 67.4°F19.7°C 45% 4.0 mph WNW6.4 kmh WNW 4.5 mph7.2 kmh 0.00 in0.0 mb 0.00 in0.0 mm 0.00 in0.0 mm 0.00 in0.0 mm
01:10 PM 91.9°F33.3°C 66.8°F19.3°C 44% 4.9 mph WSW7.9 kmh WSW 5.6 mph9.0 kmh 0.00 in0.0 mb 0.00 in0.0 mm 0.00 in0.0 mm 0.00 in0.0 mm
01:05 PM 91.9°F33.3°C 66.2°F19.0°C 43% 8.1 mph WNW13.0 kmh WNW 10.3 mph16.6 kmh 0.00 in0.0 mb 0.00 in0.0 mm 0.00 in0.0 mm 0.00 in0.0 mm
01:01 PM 91.8°F33.2°C 66.7°F19.3°C 44% 2.2 mph WSW3.5 kmh WSW 3.4 mph5.5 kmh 0.00 in0.0 mb 0.00 in0.0 mm 0.00 in0.0 mm 0.00 in0.0 mm
12:55 PM 91.4°F33.0°C 66.4°F19.1°C 44% 3.6 mph W5.8 kmh W 4.5 mph7.2 kmh 0.00 in0.0 mb 0.00 in0.0 mm 0.00 in0.0 mm 0.00 in0.0 mm
12:50 PM 91.2°F32.9°C 66.8°F19.3°C 45% 1.8 mph WSW2.9 kmh WSW 3.4 mph5.5 kmh 0.00 in0.0 mb 0.00 in0.0 mm 0.00 in0.0 mm 0.00 in0.0 mm
12:45 PM 90.9°F32.7°C 65.9°F18.8°C 44% 2.2 mph W3.5 kmh W 3.4 mph5.5 kmh 0.00 in0.0 mb 0.00 in0.0 mm 0.00 in0.0 mm 0.00 in0.0 mm
12:40 PM 90.7°F32.6°C 66.4°F19.1°C 45% 1.1 mph W1.8 kmh W 1.1 mph1.8 kmh 0.00 in0.0 mb 0.00 in0.0 mm 0.00 in0.0 mm 0.00 in0.0 mm
12:35 PM 90.3°F32.4°C 65.4°F18.6°C 44% 2.9 mph SW4.7 kmh SW 3.4 mph5.5 kmh 0.00 in0.0 mb 0.00 in0.0 mm 0.00 in0.0 mm 0.00 in0.0 mm
12:30 PM 90.0°F32.2°C 65.1°F18.4°C 44% 3.8 mph WSW6.1 kmh WSW 4.5 mph7.2 kmh 0.00 in0.0 mb 0.00 in0.0 mm 0.00 in0.0 mm 0.00 in0.0 mm
12:25 PM 89.8°F32.1°C 66.2°F19.0°C 46% 0.5 mph S0.8 kmh S 1.1 mph1.8 kmh 0.00 in0.0 mb 0.00 in0.0 mm 0.00 in0.0 mm 0.00 in0.0 mm
12:20 PM 89.4°F31.9°C 64.6°F18.1°C 44% 2.7 mph WSW4.3 kmh WSW 3.4 mph5.5 kmh 0.00 in0.0 mb 0.00 in0.0 mm 0.00 in0.0 mm 0.00 in0.0 mm
12:16 PM 89.4°F31.9°C 64.6°F18.1°C 44% 4.0 mph WSW6.4 kmh WSW 5.6 mph9.0 kmh 0.00 in0.0 mb 0.00 in0.0 mm 0.00 in0.0 mm 0.00 in0.0 mm
12:10 PM 89.2°F31.8°C 64.4°F18.0°C 44% 1.8 mph W2.9 kmh W 3.4 mph5.5 kmh 0.00 in0.0 mb 0.00 in0.0 mm 0.00 in0.0 mm 0.00 in0.0 mm
12:05 PM 88.9°F31.6°C 64.1°F17.8°C 44% 1.8 mph WSW2.9 kmh WSW 3.4 mph5.5 kmh 0.00 in0.0 mb 0.00 in0.0 mm 0.00 in0.0 mm 0.00 in0.0 mm
12:00 PM 88.5°F31.4°C 64.4°F18.0°C 45% 2.5 mph W4.0 kmh W 4.5 mph7.2 kmh 0.00 in0.0 mb 0.00 in0.0 mm 0.00 in0.0 mm 0.00 in0.0 mm
11:55 AM 88.2°F31.2°C 63.5°F17.5°C 44% 0.7 mph WNW1.1 kmh WNW 1.1 mph1.8 kmh 0.00 in0.0 mb 0.00 in0.0 mm 0.00 in0.0 mm 0.00 in0.0 mm
11:50 AM 87.8°F31.0°C 62.5°F16.9°C 43% 0.7 mph SW1.1 kmh SW 1.1 mph1.8 kmh 0.00 in0.0 mb 0.00 in0.0 mm 0.00 in0.0 mm 0.00 in0.0 mm
11:45 AM 87.3°F30.7°C 60.0°F15.6°C 40% 0.7 mph S1.1 kmh S 1.1 mph1.8 kmh 0.00 in0.0 mb 0.00 in0.0 mm 0.00 in0.0 mm 0.00 in0.0 mm
11:40 AM 86.7°F30.4°C 60.1°F15.6°C 41% 0.9 mph W1.4 kmh W 1.1 mph1.8 kmh 0.00 in0.0 mb 0.00 in0.0 mm 0.00 in0.0 mm 0.00 in0.0 mm
11:35 AM 86.5°F30.3°C 61.3°F16.3°C 43% 1.6 mph SW2.6 kmh SW 2.2 mph3.5 kmh 0.00 in0.0 mb 0.00 in0.0 mm 0.00 in0.0 mm 0.00 in0.0 mm
11:31 AM 86.7°F30.4°C 60.8°F16.0°C 42% 1.6 mph W2.6 kmh W 2.2 mph3.5 kmh 0.00 in0.0 mb 0.00 in0.0 mm 0.00 in0.0 mm 0.00 in0.0 mm
11:25 AM 86.5°F30.3°C 60.6°F15.9°C 42% 1.8 mph WSW2.9 kmh WSW 2.2 mph3.5 kmh 0.00 in0.0 mb 0.00 in0.0 mm 0.00 in0.0 mm 0.00 in0.0 mm
11:20 AM 86.5°F30.3°C 61.3°F16.3°C 43% 0.9 mph SSE1.4 kmh SSE 1.1 mph1.8 kmh 0.00 in0.0 mb 0.00 in0.0 mm 0.00 in0.0 mm 0.00 in0.0 mm
11:15 AM 86.5°F30.3°C 63.2°F17.3°C 46% 2.9 mph WNW4.7 kmh WNW 3.4 mph5.5 kmh 0.00 in0.0 mb 0.00 in0.0 mm 0.00 in0.0 mm 0.00 in0.0 mm
11:10 AM 86.4°F30.2°C 63.1°F17.3°C 46% 2.2 mph W3.5 kmh W 3.4 mph5.5 kmh 0.00 in0.0 mb 0.00 in0.0 mm 0.00 in0.0 mm 0.00 in0.0 mm
11:05 AM 86.0°F30.0°C 63.4°F17.4°C 47% 1.1 mph SW1.8 kmh SW 1.1 mph1.8 kmh 0.00 in0.0 mb 0.00 in0.0 mm 0.00 in0.0 mm 0.00 in0.0 mm
11:00 AM 85.6°F29.8°C 62.4°F16.9°C 46% Calm Calm -- 0.00 in0.0 mb 0.00 in0.0 mm 0.00 in0.0 mm 0.00 in0.0 mm
10:55 AM 85.1°F29.5°C 62.6°F17.0°C 47% Calm Calm -- 0.00 in0.0 mb 0.00 in0.0 mm 0.00 in0.0 mm 0.00 in0.0 mm
10:50 AM 84.4°F29.1°C 61.9°F16.6°C 47% 0.2 mph S0.3 kmh S 1.1 mph1.8 kmh 0.00 in0.0 mb 0.00 in0.0 mm 0.00 in0.0 mm 0.00 in0.0 mm
10:46 AM 83.7°F28.7°C 62.5°F16.9°C 49% Calm Calm -- 0.00 in0.0 mb 0.00 in0.0 mm 0.00 in0.0 mm 0.00 in0.0 mm
10:40 AM 82.9°F28.3°C 62.3°F16.8°C 50% 0.7 mph SSE1.1 kmh SSE 1.1 mph1.8 kmh 0.00 in0.0 mb 0.00 in0.0 mm 0.00 in0.0 mm 0.00 in0.0 mm
10:35 AM 82.2°F27.9°C 59.9°F15.5°C 47% 0.5 mph SW0.8 kmh SW 1.1 mph1.8 kmh 0.00 in0.0 mb 0.00 in0.0 mm 0.00 in0.0 mm 0.00 in0.0 mm
10:30 AM 81.7°F27.6°C 61.2°F16.2°C 50% Calm Calm -- 0.00 in0.0 mb 0.00 in0.0 mm 0.00 in0.0 mm 0.00 in0.0 mm
10:25 AM 81.0°F27.2°C 62.2°F16.8°C 53% Calm Calm -- 0.00 in0.0 mb 0.00 in0.0 mm 0.00 in0.0 mm 0.00 in0.0 mm
10:20 AM 80.6°F27.0°C 60.8°F16.0°C 51% Calm Calm -- 0.00 in0.0 mb 0.00 in0.0 mm 0.00 in0.0 mm 0.00 in0.0 mm
10:15 AM 80.2°F26.8°C 61.5°F16.4°C 53% Calm Calm -- 0.00 in0.0 mb 0.00 in0.0 mm 0.00 in0.0 mm 0.00 in0.0 mm
10:10 AM 79.7°F26.5°C 61.6°F16.4°C 54% Calm Calm -- 0.00 in0.0 mb 0.00 in0.0 mm 0.00 in0.0 mm 0.00 in0.0 mm
10:05 AM 79.2°F26.2°C 59.5°F15.3°C 51% Calm Calm -- 0.00 in0.0 mb 0.00 in0.0 mm 0.00 in0.0 mm 0.00 in0.0 mm
10:01 AM 78.8°F26.0°C 60.7°F15.9°C 54% Calm Calm -- 0.00 in0.0 mb 0.00 in0.0 mm 0.00 in0.0 mm 0.00 in0.0 mm
09:55 AM 78.3°F25.7°C 58.7°F14.8°C 51% Calm Calm -- 0.00 in0.0 mb 0.00 in0.0 mm 0.00 in0.0 mm 0.00 in0.0 mm
09:50 AM 77.7°F25.4°C 59.2°F15.1°C 53% Calm Calm -- 0.00 in0.0 mb 0.00 in0.0 mm 0.00 in0.0 mm 0.00 in0.0 mm
09:45 AM 77.0°F25.0°C 58.5°F14.7°C 53% Calm Calm -- 0.00 in0.0 mb 0.00 in0.0 mm 0.00 in0.0 mm 0.00 in0.0 mm
09:40 AM 76.6°F24.8°C 60.2°F15.7°C 57% Calm Calm -- 0.00 in0.0 mb 0.00 in0.0 mm 0.00 in0.0 mm 0.00 in0.0 mm
09:35 AM 76.3°F24.6°C 59.9°F15.5°C 57% Calm Calm -- 0.00 in0.0 mb 0.00 in0.0 mm 0.00 in0.0 mm 0.00 in0.0 mm
09:30 AM 75.6°F24.2°C 58.8°F14.9°C 56% Calm Calm -- 0.00 in0.0 mb 0.00 in0.0 mm 0.00 in0.0 mm 0.00 in0.0 mm
09:25 AM 74.7°F23.7°C 59.4°F15.2°C 59% Calm Calm -- 0.00 in0.0 mb 0.00 in0.0 mm 0.00 in0.0 mm 0.00 in0.0 mm
09:20 AM 73.9°F23.3°C 60.0°F15.6°C 62% Calm Calm -- 0.00 in0.0 mb 0.00 in0.0 mm 0.00 in0.0 mm 0.00 in0.0 mm
09:16 AM 73.6°F23.1°C 59.3°F15.2°C 61% Calm Calm -- 0.00 in0.0 mb 0.00 in0.0 mm 0.00 in0.0 mm 0.00 in0.0 mm
09:10 AM 72.1°F22.3°C 57.0°F13.9°C 59% Calm Calm -- 0.00 in0.0 mb 0.00 in0.0 mm 0.00 in0.0 mm 0.00 in0.0 mm
09:05 AM 70.5°F21.4°C 54.5°F12.5°C 57% Calm Calm -- 0.00 in0.0 mb 0.00 in0.0 mm 0.00 in0.0 mm 0.00 in0.0 mm
09:00 AM 68.9°F20.5°C 55.3°F12.9°C 62% Calm Calm -- 0.00 in0.0 mb 0.00 in0.0 mm 0.00 in0.0 mm 0.00 in0.0 mm
08:55 AM 67.6°F19.8°C 54.5°F12.5°C 63% Calm Calm -- 0.00 in0.0 mb 0.00 in0.0 mm 0.00 in0.0 mm 0.00 in0.0 mm
08:50 AM 66.2°F19.0°C 54.5°F12.5°C 66% Calm Calm -- 0.00 in0.0 mb 0.00 in0.0 mm 0.00 in0.0 mm 0.00 in0.0 mm
08:45 AM 64.8°F18.2°C 54.4°F12.4°C 69% Calm Calm -- 0.00 in0.0 mb 0.00 in0.0 mm 0.00 in0.0 mm 0.00 in0.0 mm
08:40 AM 63.5°F17.5°C 54.7°F12.6°C 73% Calm Calm -- 0.00 in0.0 mb 0.00 in0.0 mm 0.00 in0.0 mm 0.00 in0.0 mm
08:35 AM 62.6°F17.0°C 56.3°F13.5°C 80% Calm Calm -- 0.00 in0.0 mb 0.00 in0.0 mm 0.00 in0.0 mm 0.00 in0.0 mm
08:31 AM 62.1°F16.7°C 56.9°F13.8°C 83% Calm Calm -- 0.00 in0.0 mb 0.00 in0.0 mm 0.00 in0.0 mm 0.00 in0.0 mm
08:25 AM 61.3°F16.3°C 58.3°F14.6°C 90% Calm Calm -- 0.00 in0.0 mb 0.00 in0.0 mm 0.00 in0.0 mm 0.00 in0.0 mm
08:20 AM 61.0°F16.1°C 59.6°F15.3°C 95% Calm Calm -- 0.00 in0.0 mb 0.00 in0.0 mm 0.00 in0.0 mm 0.00 in0.0 mm
08:15 AM 60.6°F15.9°C 59.2°F15.1°C 95% Calm Calm -- 0.00 in0.0 mb 0.00 in0.0 mm 0.00 in0.0 mm 0.00 in0.0 mm
08:10 AM 60.3°F15.7°C 59.4°F15.2°C 97% Calm Calm -- 0.00 in0.0 mb 0.00 in0.0 mm 0.00 in0.0 mm 0.00 in0.0 mm
08:05 AM 59.9°F15.5°C 59.3°F15.2°C 98% Calm Calm -- 0.00 in0.0 mb 0.00 in0.0 mm 0.00 in0.0 mm 0.00 in0.0 mm
08:00 AM 59.4°F15.2°C 58.8°F14.9°C 98% Calm Calm -- 0.00 in0.0 mb 0.00 in0.0 mm 0.00 in0.0 mm 0.00 in0.0 mm
07:55 AM 58.8°F14.9°C 58.2°F14.6°C 98% Calm Calm -- 0.00 in0.0 mb 0.00 in0.0 mm 0.00 in0.0 mm 0.00 in0.0 mm
07:50 AM 58.5°F14.7°C 57.9°F14.4°C 98% Calm Calm -- 0.00 in0.0 mb 0.00 in0.0 mm 0.00 in0.0 mm 0.00 in0.0 mm
07:46 AM 58.1°F14.5°C 57.5°F14.2°C 98% Calm Calm -- 0.00 in0.0 mb 0.00 in0.0 mm 0.00 in0.0 mm 0.00 in0.0 mm
07:40 AM 57.4°F14.1°C 57.1°F13.9°C 99% Calm Calm -- 0.00 in0.0 mb 0.00 in0.0 mm 0.00 in0.0 mm 0.00 in0.0 mm
07:35 AM 57.2°F14.0°C 56.9°F13.8°C 99% Calm Calm -- 0.00 in0.0 mb 0.00 in0.0 mm 0.00 in0.0 mm 0.00 in0.0 mm
07:30 AM 56.8°F13.8°C 56.5°F13.6°C 99% Calm Calm -- 0.00 in0.0 mb 0.00 in0.0 mm 0.00 in0.0 mm 0.00 in0.0 mm
07:25 AM 56.3°F13.5°C 56.0°F13.3°C 99% Calm Calm -- 0.00 in0.0 mb 0.00 in0.0 mm 0.00 in0.0 mm 0.00 in0.0 mm
07:20 AM 56.1°F13.4°C 55.8°F13.2°C 99% Calm Calm -- 0.00 in0.0 mb 0.00 in0.0 mm 0.00 in0.0 mm 0.00 in0.0 mm
07:15 AM 55.9°F13.3°C 55.6°F13.1°C 99% Calm Calm -- 0.00 in0.0 mb 0.00 in0.0 mm 0.00 in0.0 mm 0.00 in0.0 mm
07:10 AM 55.8°F13.2°C 55.5°F13.1°C 99% Calm Calm -- 0.00 in0.0 mb 0.00 in0.0 mm 0.00 in0.0 mm 0.00 in0.0 mm
07:05 AM 55.6°F13.1°C 55.3°F12.9°C 99% Calm Calm -- 0.00 in0.0 mb 0.00 in0.0 mm 0.00 in0.0 mm 0.00 in0.0 mm
07:01 AM 55.6°F13.1°C 55.3°F12.9°C 99% Calm Calm -- 0.00 in0.0 mb 0.00 in0.0 mm 0.00 in0.0 mm 0.00 in0.0 mm
06:55 AM 55.6°F13.1°C 55.3°F12.9°C 99% Calm Calm -- 0.00 in0.0 mb 0.00 in0.0 mm 0.00 in0.0 mm 0.00 in0.0 mm
06:50 AM 55.4°F13.0°C 54.8°F12.7°C 98% Calm Calm -- 0.00 in0.0 mb 0.00 in0.0 mm 0.00 in0.0 mm 0.00 in0.0 mm
06:45 AM 55.4°F13.0°C 55.1°F12.8°C 99% Calm Calm -- 0.00 in0.0 mb 0.00 in0.0 mm 0.00 in0.0 mm 0.00 in0.0 mm
06:40 AM 55.4°F13.0°C 54.8°F12.7°C 98% Calm Calm -- 0.00 in0.0 mb 0.00 in0.0 mm 0.00 in0.0 mm 0.00 in0.0 mm
06:35 AM 55.4°F13.0°C 54.8°F12.7°C 98% Calm Calm -- 0.00 in0.0 mb 0.00 in0.0 mm 0.00 in0.0 mm 0.00 in0.0 mm
06:30 AM 55.4°F13.0°C 54.8°F12.7°C 98% Calm Calm -- 0.00 in0.0 mb 0.00 in0.0 mm 0.00 in0.0 mm 0.00 in0.0 mm
06:25 AM 55.6°F13.1°C 55.0°F12.8°C 98% Calm Calm -- 0.00 in0.0 mb 0.00 in0.0 mm 0.00 in0.0 mm 0.00 in0.0 mm
06:20 AM 55.6°F13.1°C 55.0°F12.8°C 98% Calm Calm -- 0.00 in0.0 mb 0.00 in0.0 mm 0.00 in0.0 mm 0.00 in0.0 mm
06:16 AM 55.6°F13.1°C 55.0°F12.8°C 98% Calm Calm -- 0.00 in0.0 mb 0.00 in0.0 mm 0.00 in0.0 mm 0.00 in0.0 mm
06:10 AM 55.6°F13.1°C 55.0°F12.8°C 98% Calm Calm -- 0.00 in0.0 mb 0.00 in0.0 mm 0.00 in0.0 mm 0.00 in0.0 mm
06:05 AM 55.6°F13.1°C 55.0°F12.8°C 98% Calm Calm -- 0.00 in0.0 mb 0.00 in0.0 mm 0.00 in0.0 mm 0.00 in0.0 mm
06:00 AM 55.6°F13.1°C 55.0°F12.8°C 98% Calm Calm -- 0.00 in0.0 mb 0.00 in0.0 mm 0.00 in0.0 mm 0.00 in0.0 mm
05:55 AM 55.8°F13.2°C 55.2°F12.9°C 98% Calm Calm -- 0.00 in0.0 mb 0.00 in0.0 mm 0.00 in0.0 mm 0.00 in0.0 mm
05:50 AM 55.8°F13.2°C 55.2°F12.9°C 98% Calm Calm -- 0.00 in0.0 mb 0.00 in0.0 mm 0.00 in0.0 mm 0.00 in0.0 mm
05:45 AM 55.8°F13.2°C 55.2°F12.9°C 98% Calm Calm -- 0.00 in0.0 mb 0.00 in0.0 mm 0.00 in0.0 mm 0.00 in0.0 mm
05:40 AM 55.9°F13.3°C 55.3°F12.9°C 98% Calm Calm -- 0.00 in0.0 mb 0.00 in0.0 mm 0.00 in0.0 mm 0.00 in0.0 mm
05:35 AM 56.1°F13.4°C 55.5°F13.1°C 98% Calm Calm -- 0.00 in0.0 mb 0.00 in0.0 mm 0.00 in0.0 mm 0.00 in0.0 mm
05:31 AM 56.1°F13.4°C 55.5°F13.1°C 98% Calm Calm -- 0.00 in0.0 mb 0.00 in0.0 mm 0.00 in0.0 mm 0.00 in0.0 mm
05:25 AM 56.5°F13.6°C 55.9°F13.3°C 98% Calm Calm -- 0.00 in0.0 mb 0.00 in0.0 mm 0.00 in0.0 mm 0.00 in0.0 mm
05:20 AM 56.7°F13.7°C 56.1°F13.4°C 98% Calm Calm -- 0.00 in0.0 mb 0.00 in0.0 mm 0.00 in0.0 mm 0.00 in0.0 mm
05:15 AM 56.8°F13.8°C 56.2°F13.4°C 98% Calm Calm -- 0.00 in0.0 mb 0.00 in0.0 mm 0.00 in0.0 mm 0.00 in0.0 mm
05:10 AM 57.0°F13.9°C 56.4°F13.6°C 98% Calm Calm -- 0.00 in0.0 mb 0.00 in0.0 mm 0.00 in0.0 mm 0.00 in0.0 mm
05:05 AM 57.2°F14.0°C 56.6°F13.7°C 98% Calm Calm -- 0.00 in0.0 mb 0.00 in0.0 mm 0.00 in0.0 mm 0.00 in0.0 mm
05:00 AM 57.2°F14.0°C 56.6°F13.7°C 98% Calm Calm -- 0.00 in0.0 mb 0.00 in0.0 mm 0.00 in0.0 mm 0.00 in0.0 mm
04:55 AM 57.2°F14.0°C 56.6°F13.7°C 98% Calm Calm -- 0.00 in0.0 mb 0.00 in0.0 mm 0.00 in0.0 mm 0.00 in0.0 mm
04:50 AM 57.2°F14.0°C 56.6°F13.7°C 98% Calm Calm -- 0.00 in0.0 mb 0.00 in0.0 mm 0.00 in0.0 mm 0.00 in0.0 mm
04:46 AM 57.4°F14.1°C 56.8°F13.8°C 98% Calm Calm -- 0.00 in0.0 mb 0.00 in0.0 mm 0.00 in0.0 mm 0.00 in0.0 mm
04:40 AM 57.4°F14.1°C 56.8°F13.8°C 98% Calm Calm -- 0.00 in0.0 mb 0.00 in0.0 mm 0.00 in0.0 mm 0.00 in0.0 mm
04:35 AM 57.6°F14.2°C 57.0°F13.9°C 98% Calm Calm -- 0.00 in0.0 mb 0.00 in0.0 mm 0.00 in0.0 mm 0.00 in0.0 mm
04:30 AM 57.6°F14.2°C 57.0°F13.9°C 98% Calm Calm -- 0.00 in0.0 mb 0.00 in0.0 mm 0.00 in0.0 mm 0.00 in0.0 mm
04:25 AM 57.6°F14.2°C 57.0°F13.9°C 98% Calm Calm -- 0.00 in0.0 mb 0.00 in0.0 mm 0.00 in0.0 mm 0.00 in0.0 mm
04:20 AM 57.6°F14.2°C 57.0°F13.9°C 98% Calm Calm -- 0.00 in0.0 mb 0.00 in0.0 mm 0.00 in0.0 mm 0.00 in0.0 mm
04:15 AM 57.7°F14.3°C 57.1°F13.9°C 98% Calm Calm -- 0.00 in0.0 mb 0.00 in0.0 mm 0.00 in0.0 mm 0.00 in0.0 mm
04:10 AM 57.7°F14.3°C 56.9°F13.8°C 97% Calm Calm -- 0.00 in0.0 mb 0.00 in0.0 mm 0.00 in0.0 mm 0.00 in0.0 mm
04:05 AM 57.7°F14.3°C 56.9°F13.8°C 97% Calm Calm -- 0.00 in0.0 mb 0.00 in0.0 mm 0.00 in0.0 mm 0.00 in0.0 mm
04:01 AM 57.7°F14.3°C 56.9°F13.8°C 97% Calm Calm -- 0.00 in0.0 mb 0.00 in0.0 mm 0.00 in0.0 mm 0.00 in0.0 mm
03:55 AM 57.7°F14.3°C 56.9°F13.8°C 97% Calm Calm -- 0.00 in0.0 mb 0.00 in0.0 mm 0.00 in0.0 mm 0.00 in0.0 mm
03:50 AM 57.9°F14.4°C 57.1°F13.9°C 97% Calm Calm -- 0.00 in0.0 mb 0.00 in0.0 mm 0.00 in0.0 mm 0.00 in0.0 mm
03:45 AM 57.9°F14.4°C 57.1°F13.9°C 97% Calm Calm -- 0.00 in0.0 mb 0.00 in0.0 mm 0.00 in0.0 mm 0.00 in0.0 mm
03:40 AM 57.9°F14.4°C 57.1°F13.9°C 97% Calm Calm -- 0.00 in0.0 mb 0.00 in0.0 mm 0.00 in0.0 mm 0.00 in0.0 mm
03:35 AM 58.1°F14.5°C 57.3°F14.1°C 97% Calm Calm -- 0.00 in0.0 mb 0.00 in0.0 mm 0.00 in0.0 mm 0.00 in0.0 mm
03:30 AM 58.3°F14.6°C 57.5°F14.2°C 97% Calm Calm -- 0.00 in0.0 mb 0.00 in0.0 mm 0.00 in0.0 mm 0.00 in0.0 mm
03:25 AM 58.5°F14.7°C 57.7°F14.3°C 97% Calm Calm -- 0.00 in0.0 mb 0.00 in0.0 mm 0.00 in0.0 mm 0.00 in0.0 mm
03:20 AM 58.6°F14.8°C 57.8°F14.3°C 97% Calm Calm -- 0.00 in0.0 mb 0.00 in0.0 mm 0.00 in0.0 mm 0.00 in0.0 mm
03:16 AM 58.6°F14.8°C 57.8°F14.3°C 97% Calm Calm -- 0.00 in0.0 mb 0.00 in0.0 mm 0.00 in0.0 mm 0.00 in0.0 mm
03:10 AM 58.8°F14.9°C 57.9°F14.4°C 97% Calm Calm -- 0.00 in0.0 mb 0.00 in0.0 mm 0.00 in0.0 mm 0.00 in0.0 mm
03:05 AM 58.8°F14.9°C 57.9°F14.4°C 97% Calm Calm -- 0.00 in0.0 mb 0.00 in0.0 mm 0.00 in0.0 mm 0.00 in0.0 mm
03:00 AM 58.8°F14.9°C 57.9°F14.4°C 97% Calm Calm -- 0.00 in0.0 mb 0.00 in0.0 mm 0.00 in0.0 mm 0.00 in0.0 mm
02:55 AM 58.8°F14.9°C 57.9°F14.4°C 97% Calm Calm -- 0.00 in0.0 mb 0.00 in0.0 mm 0.00 in0.0 mm 0.00 in0.0 mm
02:50 AM 59.0°F15.0°C 58.1°F14.5°C 97% Calm Calm -- 0.00 in0.0 mb 0.00 in0.0 mm 0.00 in0.0 mm 0.00 in0.0 mm
02:45 AM 59.0°F15.0°C 58.1°F14.5°C 97% Calm Calm -- 0.00 in0.0 mb 0.00 in0.0 mm 0.00 in0.0 mm 0.00 in0.0 mm
02:40 AM 59.0°F15.0°C 58.1°F14.5°C 97% Calm Calm -- 0.00 in0.0 mb 0.00 in0.0 mm 0.00 in0.0 mm 0.00 in0.0 mm
02:35 AM 59.2°F15.1°C 58.3°F14.6°C 97% Calm Calm -- 0.00 in0.0 mb 0.00 in0.0 mm 0.00 in0.0 mm 0.00 in0.0 mm
02:31 AM 59.2°F15.1°C 58.3°F14.6°C 97% Calm Calm -- 0.00 in0.0 mb 0.00 in0.0 mm 0.00 in0.0 mm 0.00 in0.0 mm
02:25 AM 59.2°F15.1°C 58.1°F14.5°C 96% Calm Calm -- 0.00 in0.0 mb 0.00 in0.0 mm 0.00 in0.0 mm 0.00 in0.0 mm
02:20 AM 59.4°F15.2°C 58.3°F14.6°C 96% Calm Calm -- 0.00 in0.0 mb 0.00 in0.0 mm 0.00 in0.0 mm 0.00 in0.0 mm
02:15 AM 59.5°F15.3°C 58.4°F14.7°C 96% Calm Calm -- 0.00 in0.0 mb 0.00 in0.0 mm 0.00 in0.0 mm 0.00 in0.0 mm
02:10 AM 59.7°F15.4°C 58.6°F14.8°C 96% Calm Calm -- 0.00 in0.0 mb 0.00 in0.0 mm 0.00 in0.0 mm 0.00 in0.0 mm
02:05 AM 59.7°F15.4°C 58.6°F14.8°C 96% Calm Calm -- 0.00 in0.0 mb 0.00 in0.0 mm 0.00 in0.0 mm 0.00 in0.0 mm
02:00 AM 59.9°F15.5°C 58.8°F14.9°C 96% Calm Calm -- 0.00 in0.0 mb 0.00 in0.0 mm 0.00 in0.0 mm 0.00 in0.0 mm
01:55 AM 60.1°F15.6°C 59.0°F15.0°C 96% Calm Calm -- 0.00 in0.0 mb 0.00 in0.0 mm 0.00 in0.0 mm 0.00 in0.0 mm
01:50 AM 60.1°F15.6°C 59.0°F15.0°C 96% Calm Calm -- 0.00 in0.0 mb 0.00 in0.0 mm 0.00 in0.0 mm 0.00 in0.0 mm
01:46 AM 60.1°F15.6°C 59.0°F15.0°C 96% Calm Calm -- 0.00 in0.0 mb 0.00 in0.0 mm 0.00 in0.0 mm 0.00 in0.0 mm
01:40 AM 60.3°F15.7°C 59.2°F15.1°C 96% Calm Calm -- 0.00 in0.0 mb 0.00 in0.0 mm 0.00 in0.0 mm 0.00 in0.0 mm
01:35 AM 60.3°F15.7°C 59.2°F15.1°C 96% Calm Calm -- 0.00 in0.0 mb 0.00 in0.0 mm 0.00 in0.0 mm 0.00 in0.0 mm
01:30 AM 60.4°F15.8°C 59.3°F15.2°C 96% Calm Calm -- 0.00 in0.0 mb 0.00 in0.0 mm 0.00 in0.0 mm 0.00 in0.0 mm
01:25 AM 60.6°F15.9°C 59.5°F15.3°C 96% Calm Calm -- 0.00 in0.0 mb 0.00 in0.0 mm 0.00 in0.0 mm 0.00 in0.0 mm
01:20 AM 60.6°F15.9°C 59.5°F15.3°C 96% Calm Calm -- 0.00 in0.0 mb 0.00 in0.0 mm 0.00 in0.0 mm 0.00 in0.0 mm
01:15 AM 60.8°F16.0°C 59.4°F15.2°C 95% Calm Calm -- 0.00 in0.0 mb 0.00 in0.0 mm 0.00 in0.0 mm 0.00 in0.0 mm
01:10 AM 61.0°F16.1°C 59.8°F15.4°C 96% Calm Calm -- 0.00 in0.0 mb 0.00 in0.0 mm 0.00 in0.0 mm 0.00 in0.0 mm
01:05 AM 61.0°F16.1°C 59.6°F15.3°C 95% Calm Calm -- 0.00 in0.0 mb 0.00 in0.0 mm 0.00 in0.0 mm 0.00 in0.0 mm
01:01 AM 61.2°F16.2°C 59.8°F15.4°C 95% Calm Calm -- 0.00 in0.0 mb 0.00 in0.0 mm 0.00 in0.0 mm 0.00 in0.0 mm
12:55 AM 61.2°F16.2°C 59.8°F15.4°C 95% Calm Calm -- 0.00 in0.0 mb 0.00 in0.0 mm 0.00 in0.0 mm 0.00 in0.0 mm
12:50 AM 61.3°F16.3°C 59.9°F15.5°C 95% Calm Calm -- 0.00 in0.0 mb 0.00 in0.0 mm 0.00 in0.0 mm 0.00 in0.0 mm
12:45 AM 61.3°F16.3°C 59.9°F15.5°C 95% Calm Calm -- 0.00 in0.0 mb 0.00 in0.0 mm 0.00 in0.0 mm 0.00 in0.0 mm
12:40 AM 61.5°F16.4°C 60.1°F15.6°C 95% Calm Calm -- 0.00 in0.0 mb 0.00 in0.0 mm 0.00 in0.0 mm 0.00 in0.0 mm
12:35 AM 61.5°F16.4°C 60.1°F15.6°C 95% Calm Calm -- 0.00 in0.0 mb 0.00 in0.0 mm 0.00 in0.0 mm 0.00 in0.0 mm
12:30 AM 61.7°F16.5°C 60.3°F15.7°C 95% Calm Calm -- 0.00 in0.0 mb 0.00 in0.0 mm 0.00 in0.0 mm 0.00 in0.0 mm
12:25 AM 61.9°F16.6°C 60.5°F15.8°C 95% Calm Calm -- 0.00 in0.0 mb 0.00 in0.0 mm 0.00 in0.0 mm 0.00 in0.0 mm
12:20 AM 61.9°F16.6°C 60.5°F15.8°C 95% Calm Calm -- 0.00 in0.0 mb 0.00 in0.0 mm 0.00 in0.0 mm 0.00 in0.0 mm
12:16 AM 62.1°F16.7°C 60.6°F15.9°C 95% Calm Calm -- 0.00 in0.0 mb 0.00 in0.0 mm 0.00 in0.0 mm 0.00 in0.0 mm
12:10 AM 62.2°F16.8°C 60.7°F15.9°C 95% Calm Calm -- 0.00 in0.0 mb 0.00 in0.0 mm 0.00 in0.0 mm 0.00 in0.0 mm
12:05 AM 62.2°F16.8°C 60.4°F15.8°C 94% Calm Calm -- 0.00 in0.0 mb 0.00 in0.0 mm 0.00 in0.0 mm 0.00 in0.0 mm
12:00 AM 62.4°F16.9°C 60.9°F16.1°C 95% Calm Calm -- 0.00 in0.0 mb 0.00 in0.0 mm 0.00 in0.0 mm 0.00 in0.0 mm